METAR Data
IDs: Format: Raw Decoded Include TAF

Data at: 0144 UTC 01 Mar 2021

UHHH 010130Z 27013MPS 7000 2900NE BLSN NSC M15/M27 Q1026 R23L/420150 NOSIG RMK QFE763/1018